createdAt,value
2023-05-29T00:00:26.394Z,0.109
2023-05-29T00:01:28.537Z,0
2023-05-29T00:02:25.727Z,0.449
2023-05-29T00:03:25.303Z,0.340
2023-05-29T00:04:25.345Z,0.109
2023-05-29T00:05:25.464Z,0.219
2023-05-29T00:06:25.104Z,0.109
2023-05-29T00:07:25.213Z,0.340
2023-05-29T00:08:24.790Z,0.109
2023-05-29T00:09:25.092Z,0.109
2023-05-29T00:10:25.345Z,0
2023-05-29T00:11:25.312Z,0.109
2023-05-29T00:12:25.655Z,0.219
2023-05-29T00:13:25.456Z,0
2023-05-29T00:14:25.470Z,0
2023-05-29T00:15:25.904Z,0
2023-05-29T00:16:25.108Z,0
2023-05-29T00:17:25.137Z,0
2023-05-29T00:18:25.034Z,0
2023-05-29T00:19:24.732Z,0
2023-05-29T00:20:26.005Z,0
2023-05-29T00:21:25.017Z,0
2023-05-29T00:22:24.932Z,0
2023-05-29T00:23:25.086Z,0.109
2023-05-29T00:24:25.172Z,0.219
2023-05-29T00:25:25.241Z,0
2023-05-29T00:26:24.788Z,0.109
2023-05-29T00:27:24.852Z,0.109
2023-05-29T00:28:25.381Z,0.109
2023-05-29T00:29:25.056Z,0.219
2023-05-29T00:30:25.050Z,0
2023-05-29T00:31:24.949Z,0
2023-05-29T00:32:24.941Z,0
2023-05-29T00:33:24.986Z,0
2023-05-29T00:34:25.032Z,0
2023-05-29T00:35:25.025Z,0
2023-05-29T00:36:25.226Z,0
2023-05-29T00:37:25.254Z,0
2023-05-29T00:38:25.201Z,0
2023-05-29T00:39:24.982Z,0
2023-05-29T00:40:24.994Z,0
2023-05-29T00:41:25.211Z,0
2023-05-29T00:42:25.185Z,0
2023-05-29T00:43:24.745Z,0
2023-05-29T00:44:25.509Z,0
2023-05-29T00:45:25.650Z,0
2023-05-29T00:46:25.535Z,0
2023-05-29T00:47:25.597Z,0
2023-05-29T00:48:25.348Z,0
2023-05-29T00:49:25.088Z,0
2023-05-29T00:50:24.916Z,0
2023-05-29T00:51:24.889Z,0
2023-05-29T00:52:25.537Z,0
2023-05-29T00:53:25.218Z,0
2023-05-29T00:54:24.752Z,0
2023-05-29T00:55:25.419Z,0
2023-05-29T00:56:25.247Z,0
2023-05-29T00:57:25.020Z,0
2023-05-29T00:58:25.007Z,0
2023-05-29T00:59:25.689Z,0
2023-05-29T01:00:34.733Z,0
2023-05-29T01:01:25.857Z,0
2023-05-29T01:02:25.018Z,0
2023-05-29T01:03:25.205Z,0
2023-05-29T01:04:24.936Z,0
2023-05-29T01:05:24.988Z,0
2023-05-29T01:06:24.974Z,0
2023-05-29T01:07:25.142Z,0
2023-05-29T01:08:25.109Z,0
2023-05-29T01:09:25.292Z,0
2023-05-29T01:10:24.934Z,0
2023-05-29T01:11:24.922Z,0
2023-05-29T01:12:25.266Z,0
2023-05-29T01:13:24.908Z,0
2023-05-29T01:14:25.712Z,0
2023-05-29T01:15:26.060Z,0
2023-05-29T01:16:25.029Z,0
2023-05-29T01:17:25.233Z,0
2023-05-29T01:18:25.044Z,0
2023-05-29T01:19:24.729Z,0
2023-05-29T01:20:25.175Z,0
2023-05-29T01:21:25.304Z,0
2023-05-29T01:22:25.312Z,0
2023-05-29T01:23:24.857Z,0
2023-05-29T01:24:25.408Z,0
2023-05-29T01:25:25.343Z,0
2023-05-29T01:26:25.130Z,0
2023-05-29T01:27:24.906Z,0
2023-05-29T01:28:25.396Z,0
2023-05-29T01:29:25.126Z,0
2023-05-29T01:30:25.464Z,0
2023-05-29T01:31:25.013Z,0
2023-05-29T01:32:24.968Z,0
2023-05-29T01:33:25.108Z,0
2023-05-29T01:34:24.869Z,0
2023-05-29T01:35:25.139Z,0
2023-05-29T01:36:24.965Z,0
2023-05-29T01:37:24.956Z,0
2023-05-29T01:38:24.893Z,0
2023-05-29T01:39:25.703Z,0
2023-05-29T01:40:25.669Z,0
2023-05-29T01:41:25.436Z,0
2023-05-29T01:42:25.433Z,0
2023-05-29T01:43:25.158Z,0
2023-05-29T01:44:24.969Z,0
2023-05-29T01:45:25.334Z,0
2023-05-29T01:46:25.129Z,0
2023-05-29T01:47:25.220Z,0
2023-05-29T01:48:24.976Z,0
2023-05-29T01:49:25.809Z,0
2023-05-29T01:50:25.531Z,0
2023-05-29T01:51:25.371Z,0
2023-05-29T01:52:25.026Z,0
2023-05-29T01:53:25.066Z,0
2023-05-29T01:54:25.034Z,0
2023-05-29T01:55:24.919Z,0
2023-05-29T01:56:25.772Z,0
2023-05-29T01:57:25.577Z,0
2023-05-29T01:58:25.327Z,0
2023-05-29T01:59:25.178Z,0
2023-05-29T02:00:26.260Z,0
2023-05-29T02:01:25.798Z,0
2023-05-29T02:02:26.250Z,0
2023-05-29T02:03:26.121Z,0
2023-05-29T02:04:25.953Z,0
2023-05-29T02:05:25.287Z,0.109
2023-05-29T02:06:25.449Z,0
2023-05-29T02:07:25.306Z,0
2023-05-29T02:08:25.287Z,0
2023-05-29T02:09:25.185Z,0
2023-05-29T02:10:25.350Z,0
2023-05-29T02:11:25.109Z,0
2023-05-29T02:12:25.136Z,0
2023-05-29T02:13:25.113Z,0
2023-05-29T02:14:24.861Z,0
2023-05-29T02:15:24.968Z,0
2023-05-29T02:16:25.076Z,0
2023-05-29T02:17:25.216Z,0
2023-05-29T02:18:25.047Z,0
2023-05-29T02:19:24.683Z,0
2023-05-29T02:20:25.040Z,0
2023-05-29T02:21:24.896Z,0
2023-05-29T02:22:24.843Z,0
2023-05-29T02:23:24.908Z,0
2023-05-29T02:24:25.067Z,0
2023-05-29T02:25:24.966Z,0
2023-05-29T02:26:25.005Z,0
2023-05-29T02:27:25.067Z,0.109
2023-05-29T02:28:25.189Z,0
2023-05-29T02:29:24.913Z,0
2023-05-29T02:30:25.594Z,0
2023-05-29T02:31:25.953Z,0
2023-05-29T02:32:25.516Z,0
2023-05-29T02:33:25.789Z,0
2023-05-29T02:34:24.934Z,0
2023-05-29T02:35:25.316Z,0
2023-05-29T02:36:25.262Z,0
2023-05-29T02:37:25.189Z,0
2023-05-29T02:38:25.247Z,13600
2023-05-29T02:39:24.990Z,13600
2023-05-29T02:40:24.949Z,13600
2023-05-29T02:41:25.285Z,13600
2023-05-29T02:42:25.238Z,0
2023-05-29T02:43:24.894Z,13600
2023-05-29T02:44:25.379Z,13600
2023-05-29T02:45:25.731Z,13600
2023-05-29T02:46:25.785Z,13600
2023-05-29T02:47:25.012Z,13600
2023-05-29T02:48:25.031Z,13600
2023-05-29T02:49:24.829Z,13600
2023-05-29T02:50:25.042Z,13600
2023-05-29T02:51:25.120Z,13600
2023-05-29T02:52:25.251Z,13600
2023-05-29T02:53:24.975Z,0
2023-05-29T02:54:25.112Z,0.050
2023-05-29T02:55:25.533Z,0
2023-05-29T02:56:25.562Z,0
2023-05-29T02:57:25.538Z,0
2023-05-29T02:58:25.803Z,0.620
2023-05-29T02:59:24.704Z,0.680
2023-05-29T03:00:26.031Z,0.660
2023-05-29T03:01:25.031Z,0.449
2023-05-29T03:02:25.339Z,0.519
2023-05-29T03:03:25.612Z,1.360
2023-05-29T03:04:24.838Z,1.899
2023-05-29T03:05:25.803Z,1.970
2023-05-29T03:06:25.786Z,2.299
2023-05-29T03:07:25.530Z,3.480
2023-05-29T03:08:25.132Z,3.329
2023-05-29T03:09:24.978Z,4.630
2023-05-29T03:10:25.532Z,5.179
2023-05-29T03:11:25.508Z,6.25
2023-05-29T03:12:25.581Z,7.449
2023-05-29T03:13:25.277Z,8.760
2023-05-29T03:14:25.035Z,10.18
2023-05-29T03:15:25.405Z,11.46
2023-05-29T03:16:25.171Z,13.64
2023-05-29T03:17:25.202Z,15.40
2023-05-29T03:18:25.443Z,17.63
2023-05-29T03:19:25.189Z,19.75
2023-05-29T03:20:25.749Z,22.39
2023-05-29T03:21:24.950Z,25.10
2023-05-29T03:22:24.913Z,28.5
2023-05-29T03:23:27.453Z,31.60
2023-05-29T03:24:25.454Z,35.09
2023-05-29T03:25:25.447Z,38.90
2023-05-29T03:26:25.080Z,43.09
2023-05-29T03:27:25.231Z,47.59
2023-05-29T03:28:25.160Z,52.09
2023-05-29T03:29:25.212Z,57.29
2023-05-29T03:30:25.828Z,62.59
2023-05-29T03:31:25.471Z,68.09
2023-05-29T03:32:25.780Z,74
2023-05-29T03:33:25.300Z,80.69
2023-05-29T03:34:25.393Z,87.30
2023-05-29T03:35:25.552Z,94
2023-05-29T03:36:25.763Z,101.5
2023-05-29T03:37:25.985Z,109.5
2023-05-29T03:38:25.168Z,117.5
2023-05-29T03:39:25.204Z,125.5
2023-05-29T03:40:25.463Z,134
2023-05-29T03:41:25.245Z,143
2023-05-29T03:42:25.224Z,154
2023-05-29T03:43:25.156Z,164.5
2023-05-29T03:44:25.177Z,173
2023-05-29T03:45:25.618Z,184
2023-05-29T03:46:25.809Z,194
2023-05-29T03:47:25.783Z,204
2023-05-29T03:48:25.304Z,215
2023-05-29T03:49:25.161Z,226
2023-05-29T03:50:25.321Z,238
2023-05-29T03:51:25.202Z,249
2023-05-29T03:52:25.477Z,261
2023-05-29T03:53:25.601Z,273
2023-05-29T03:54:25.116Z,284
2023-05-29T03:55:25.405Z,297
2023-05-29T03:56:25.503Z,308
2023-05-29T03:57:25.539Z,321
2023-05-29T03:58:25.335Z,332
2023-05-29T03:59:25.523Z,345
2023-05-29T04:00:26.729Z,357
2023-05-29T04:01:25.124Z,370
2023-05-29T04:02:25.565Z,382
2023-05-29T04:03:25.223Z,395
2023-05-29T04:04:25.232Z,407
2023-05-29T04:05:25.626Z,420
2023-05-29T04:06:24.988Z,433
2023-05-29T04:07:25.076Z,445
2023-05-29T04:08:25.143Z,459
2023-05-29T04:09:25.265Z,471
2023-05-29T04:10:25.747Z,484
2023-05-29T04:11:25.488Z,496
2023-05-29T04:12:25.908Z,509
2023-05-29T04:13:24.776Z,523
2023-05-29T04:14:25.765Z,537
2023-05-29T04:15:25.580Z,550
2023-05-29T04:16:25.849Z,561
2023-05-29T04:17:25.456Z,573
2023-05-29T04:18:25.820Z,586
2023-05-29T04:19:25.859Z,603
2023-05-29T04:20:25.193Z,636
2023-05-29T04:21:25.180Z,658
2023-05-29T04:22:25.238Z,650.5
2023-05-29T04:23:25.579Z,648.2
2023-05-29T04:24:25.826Z,657
2023-05-29T04:25:25.434Z,669
2023-05-29T04:26:25.289Z,682
2023-05-29T04:27:25.501Z,697
2023-05-29T04:28:25.645Z,709
2023-05-29T04:29:25.793Z,724
2023-05-29T04:30:26.155Z,741
2023-05-29T04:31:25.548Z,757
2023-05-29T04:32:26.144Z,776
2023-05-29T04:33:25.127Z,797
2023-05-29T04:34:24.882Z,819
2023-05-29T04:35:25.210Z,843
2023-05-29T04:36:25.242Z,871
2023-05-29T04:37:25.296Z,900
2023-05-29T04:38:25.487Z,920
2023-05-29T04:39:25.858Z,960
2023-05-29T04:40:25.420Z,977
2023-05-29T04:41:25.643Z,1000
2023-05-29T04:42:25.972Z,1050
2023-05-29T04:43:25.521Z,1110
2023-05-29T04:44:25.796Z,1100
2023-05-29T04:45:25.542Z,1160
2023-05-29T04:46:25.916Z,1151
2023-05-29T04:47:25.704Z,1100
2023-05-29T04:48:25.861Z,1190
2023-05-29T04:49:25.137Z,1300
2023-05-29T04:50:25.395Z,1500
2023-05-29T04:51:25.939Z,1600
2023-05-29T04:52:25.401Z,1700
2023-05-29T04:53:25.694Z,1800
2023-05-29T04:54:26.061Z,1830
2023-05-29T04:55:25.299Z,1870
2023-05-29T04:56:25.317Z,1910
2023-05-29T04:57:25.777Z,1950
2023-05-29T04:58:25.725Z,1990
2023-05-29T04:59:25.945Z,2020
2023-05-29T05:00:26.079Z,2066
2023-05-29T05:01:25.527Z,2081.
2023-05-29T05:02:26.254Z,2076.
2023-05-29T05:03:25.616Z,2090
2023-05-29T05:04:26.247Z,2130
2023-05-29T05:05:25.798Z,2155
2023-05-29T05:06:25.246Z,2166.
2023-05-29T05:07:25.736Z,2179
2023-05-29T05:08:25.511Z,2199
2023-05-29T05:09:25.988Z,2215
2023-05-29T05:10:25.776Z,2226.
2023-05-29T05:11:24.860Z,2228
2023-05-29T05:12:25.218Z,2245
2023-05-29T05:13:25.212Z,2255.
2023-05-29T05:14:25.579Z,2250
2023-05-29T05:15:26.178Z,2210
2023-05-29T05:16:25.874Z,2100
2023-05-29T05:17:25.410Z,2040
2023-05-29T05:18:25.572Z,2015
2023-05-29T05:19:26.130Z,1980
2023-05-29T05:20:25.603Z,1930
2023-05-29T05:21:25.132Z,1870
2023-05-29T05:22:25.577Z,1800
2023-05-29T05:23:25.495Z,1740
2023-05-29T05:24:25.745Z,1690
2023-05-29T05:25:25.020Z,1660
2023-05-29T05:26:25.572Z,1620
2023-05-29T05:27:25.972Z,1592
2023-05-29T05:28:24.958Z,1560
2023-05-29T05:29:26.354Z,1000
2023-05-29T05:30:25.818Z,1513
2023-05-29T05:31:24.991Z,1494
2023-05-29T05:32:25.600Z,1479.
2023-05-29T05:33:26.089Z,1469.
2023-05-29T05:34:25.460Z,1464.
2023-05-29T05:35:25.950Z,1463.
2023-05-29T05:36:25.398Z,1464.
2023-05-29T05:37:25.517Z,1469
2023-05-29T05:38:25.364Z,1486
2023-05-29T05:39:26.001Z,1515
2023-05-29T05:40:25.496Z,1544
2023-05-29T05:41:25.873Z,1563.
2023-05-29T05:42:25.307Z,1565.
2023-05-29T05:43:25.990Z,1559
2023-05-29T05:44:25.944Z,1544
2023-05-29T05:45:26.494Z,1534
2023-05-29T05:46:27.532Z,1532.
2023-05-29T05:47:25.629Z,1532.
2023-05-29T05:48:24.970Z,1533.
2023-05-29T05:49:25.465Z,1535.
2023-05-29T05:50:25.565Z,1538.
2023-05-29T05:51:25.780Z,1544.
2023-05-29T05:52:25.266Z,1550.
2023-05-29T05:53:25.704Z,1555.
2023-05-29T05:54:26.083Z,1558.
2023-05-29T05:55:25.971Z,1563.
2023-05-29T05:56:25.366Z,1569.
2023-05-29T05:57:25.600Z,1576.
2023-05-29T05:58:26.000Z,1582.
2023-05-29T05:59:25.671Z,1588.
2023-05-29T06:00:27.084Z,1593.
2023-05-29T06:01:25.274Z,1598.
2023-05-29T06:02:26.124Z,1603.
2023-05-29T06:03:26.130Z,1610.
2023-05-29T06:04:26.179Z,1620.
2023-05-29T06:05:26.284Z,1626.
2023-05-29T06:06:25.638Z,1632.
2023-05-29T06:07:25.752Z,1637.
2023-05-29T06:08:25.185Z,1641.
2023-05-29T06:09:25.251Z,1646.
2023-05-29T06:10:25.373Z,1654.
2023-05-29T06:11:25.650Z,1661.
2023-05-29T06:12:26.323Z,1669.
2023-05-29T06:13:25.891Z,1676.
2023-05-29T06:14:25.455Z,1681.
2023-05-29T06:15:26.562Z,1688.
2023-05-29T06:16:26.184Z,1693.
2023-05-29T06:17:25.812Z,1697.
2023-05-29T06:18:25.294Z,1701
2023-05-29T06:19:25.604Z,1704.
2023-05-29T06:20:26.326Z,1709.
2023-05-29T06:21:25.914Z,1715.
2023-05-29T06:22:25.871Z,1723
2023-05-29T06:23:25.563Z,1731.
2023-05-29T06:24:26.322Z,1736.
2023-05-29T06:25:25.976Z,1740
2023-05-29T06:26:25.759Z,1749.
2023-05-29T06:27:25.847Z,1755.
2023-05-29T06:28:25.747Z,1762
2023-05-29T06:29:25.740Z,1771.
2023-05-29T06:30:25.931Z,1777.
2023-05-29T06:31:26.304Z,1782.
2023-05-29T06:32:26.314Z,1781.
2023-05-29T06:33:25.927Z,1790
2023-05-29T06:34:25.636Z,1803
2023-05-29T06:35:25.580Z,1812.
2023-05-29T06:36:26.463Z,1800
2023-05-29T06:37:26.243Z,1780
2023-05-29T06:38:25.866Z,1825
2023-05-29T06:39:25.418Z,1832
2023-05-29T06:40:26.005Z,1832.
2023-05-29T06:41:25.446Z,1840.
2023-05-29T06:42:26.132Z,1844.
2023-05-29T06:43:25.853Z,1850.
2023-05-29T06:44:25.639Z,1855.
2023-05-29T06:45:26.590Z,1859.
2023-05-29T06:46:26.163Z,1862
2023-05-29T06:47:25.748Z,1865.
2023-05-29T06:48:25.417Z,1871.
2023-05-29T06:49:26.019Z,1877
2023-05-29T06:50:25.694Z,1884.
2023-05-29T06:51:25.473Z,1889.
2023-05-29T06:52:26.268Z,1896.
2023-05-29T06:53:25.681Z,1902
2023-05-29T06:54:25.841Z,1904.
2023-05-29T06:55:25.991Z,1906.
2023-05-29T06:56:25.369Z,1906
2023-05-29T06:57:26.426Z,1921
2023-05-29T06:58:25.908Z,1940
2023-05-29T06:59:25.522Z,1954
2023-05-29T07:00:27.255Z,1956
2023-05-29T07:01:26.380Z,1949.
2023-05-29T07:02:26.268Z,1944
2023-05-29T07:03:26.092Z,1951.
2023-05-29T07:04:25.486Z,1958.
2023-05-29T07:05:26.212Z,1958.
2023-05-29T07:06:25.794Z,1954.
2023-05-29T07:07:25.711Z,1960
2023-05-29T07:08:25.536Z,1966.
2023-05-29T07:09:25.734Z,1969.
2023-05-29T07:10:25.598Z,1973.
2023-05-29T07:11:25.250Z,1975
2023-05-29T07:12:26.014Z,1983.
2023-05-29T07:13:25.670Z,1984.
2023-05-29T07:14:25.929Z,1987.
2023-05-29T07:15:26.183Z,1987.
2023-05-29T07:16:26.126Z,1990.
2023-05-29T07:17:26.182Z,1993.
2023-05-29T07:18:26.083Z,1990.
2023-05-29T07:19:25.612Z,1995.
2023-05-29T07:20:25.819Z,1996.
2023-05-29T07:21:25.683Z,1995.
2023-05-29T07:22:25.822Z,1998.
2023-05-29T07:23:26.623Z,2001.
2023-05-29T07:24:25.966Z,2003.
2023-05-29T07:25:25.652Z,2008.
2023-05-29T07:26:25.577Z,2016.
2023-05-29T07:27:25.497Z,2021.
2023-05-29T07:28:26.242Z,2028.
2023-05-29T07:29:25.970Z,2032.
2023-05-29T07:30:26.110Z,2039.
2023-05-29T07:31:25.727Z,2043.
2023-05-29T07:32:25.507Z,2047
2023-05-29T07:33:26.077Z,2057.
2023-05-29T07:34:25.513Z,2065.
2023-05-29T07:35:26.461Z,2072.
2023-05-29T07:36:25.525Z,2076.
2023-05-29T07:37:26.490Z,2083
2023-05-29T07:38:25.653Z,2092.
2023-05-29T07:39:25.646Z,2095
2023-05-29T07:40:25.553Z,2094.
2023-05-29T07:41:26.652Z,2099.
2023-05-29T07:42:25.531Z,2119
2023-05-29T07:43:26.193Z,2133
2023-05-29T07:44:25.706Z,2141
2023-05-29T07:45:25.779Z,2148
2023-05-29T07:46:26.031Z,2142
2023-05-29T07:47:26.232Z,2184
2023-05-29T07:48:25.729Z,2203
2023-05-29T07:49:25.526Z,2219
2023-05-29T07:50:26.356Z,2234
2023-05-29T07:51:26.286Z,2249
2023-05-29T07:52:26.037Z,2264
2023-05-29T07:53:26.279Z,2281
2023-05-29T07:54:26.039Z,2302
2023-05-29T07:55:26.089Z,2300
2023-05-29T07:56:26.079Z,2345
2023-05-29T07:57:25.997Z,2372
2023-05-29T07:58:25.993Z,2391
2023-05-29T07:59:26.520Z,2414
2023-05-29T08:00:26.582Z,2432
2023-05-29T08:01:25.892Z,2452
2023-05-29T08:02:26.134Z,2474
2023-05-29T08:03:26.374Z,2494
2023-05-29T08:04:26.165Z,2513
2023-05-29T08:05:26.166Z,2533
2023-05-29T08:06:27.337Z,2555
2023-05-29T08:07:25.529Z,2577
2023-05-29T08:08:25.241Z,2597
2023-05-29T08:09:25.721Z,2624
2023-05-29T08:10:25.903Z,2644
2023-05-29T08:11:25.610Z,2668
2023-05-29T08:12:26.279Z,2696
2023-05-29T08:13:25.774Z,2724
2023-05-29T08:14:25.789Z,2750
2023-05-29T08:15:26.193Z,2786
2023-05-29T08:16:26.188Z,2810
2023-05-29T08:17:25.864Z,2850
2023-05-29T08:18:25.450Z,2890
2023-05-29T08:19:25.975Z,2930
2023-05-29T08:20:25.904Z,2960
2023-05-29T08:21:25.805Z,3000
2023-05-29T08:22:25.588Z,3040
2023-05-29T08:23:25.406Z,3090
2023-05-29T08:24:26.086Z,3130
2023-05-29T08:25:25.723Z,3160
2023-05-29T08:26:25.702Z,3200
2023-05-29T08:27:25.678Z,3230
2023-05-29T08:28:25.717Z,3260
2023-05-29T08:29:25.384Z,3280
2023-05-29T08:30:25.759Z,3300
2023-05-29T08:31:25.419Z,3340
2023-05-29T08:32:26.207Z,3372
2023-05-29T08:33:25.828Z,3370
2023-05-29T08:34:25.620Z,3395
2023-05-29T08:35:25.935Z,3398
2023-05-29T08:36:25.734Z,3410
2023-05-29T08:37:25.636Z,3460
2023-05-29T08:38:25.097Z,3400
2023-05-29T08:39:25.826Z,3580
2023-05-29T08:40:25.840Z,3630
2023-05-29T08:41:25.616Z,3670
2023-05-29T08:42:26.492Z,3702
2023-05-29T08:43:26.241Z,3720
2023-05-29T08:44:25.800Z,3770
2023-05-29T08:45:25.703Z,3800
2023-05-29T08:46:25.446Z,4000
2023-05-29T08:47:26.296Z,4300
2023-05-29T08:48:25.556Z,4500
2023-05-29T08:49:26.201Z,4580
2023-05-29T08:50:25.737Z,4650
2023-05-29T08:51:26.097Z,4680
2023-05-29T08:52:25.877Z,4710
2023-05-29T08:53:25.679Z,4700
2023-05-29T08:54:25.716Z,4800
2023-05-29T08:55:25.765Z,5000
2023-05-29T08:56:34.335Z,5000
2023-05-29T08:57:25.941Z,6030
2023-05-29T08:58:25.464Z,5900
2023-05-29T08:59:26.260Z,5700
2023-05-29T09:00:26.927Z,5630
2023-05-29T09:01:25.714Z,5590
2023-05-29T09:02:25.576Z,5580
2023-05-29T09:03:25.484Z,5600
2023-05-29T09:04:26.299Z,5720
2023-05-29T09:05:27.735Z,5600
2023-05-29T09:06:25.965Z,5400
2023-05-29T09:07:25.691Z,5400
2023-05-29T09:08:25.896Z,5373
2023-05-29T09:09:25.601Z,5000
2023-05-29T09:10:25.758Z,5200
2023-05-29T09:11:25.669Z,5100
2023-05-29T09:12:25.657Z,5020
2023-05-29T09:13:25.529Z,5070
2023-05-29T09:14:26.556Z,5101
2023-05-29T09:15:26.123Z,5060
2023-05-29T09:16:25.727Z,5041
2023-05-29T09:17:25.716Z,5020
2023-05-29T09:18:25.823Z,5011
2023-05-29T09:19:25.666Z,5007.
2023-05-29T09:20:25.710Z,5001
2023-05-29T09:21:25.571Z,5001.
2023-05-29T09:22:26.531Z,5001
2023-05-29T09:23:26.086Z,4980
2023-05-29T09:24:25.610Z,4800
2023-05-29T09:25:26.357Z,4824
2023-05-29T09:26:25.886Z,4700
2023-05-29T09:27:25.703Z,4800
2023-05-29T09:28:25.447Z,4942
2023-05-29T09:29:26.069Z,4950
2023-05-29T09:30:26.023Z,4900
2023-05-29T09:31:25.665Z,4880
2023-05-29T09:32:25.648Z,4910
2023-05-29T09:33:25.693Z,4800
2023-05-29T09:34:25.766Z,4970
2023-05-29T09:35:26.244Z,4900
2023-05-29T09:36:25.967Z,5060
2023-05-29T09:37:25.663Z,5140
2023-05-29T09:38:38.472Z,5170
2023-05-29T09:39:29.720Z,5110
2023-05-29T09:40:26.485Z,5100
2023-05-29T09:41:26.237Z,5223
2023-05-29T09:42:26.544Z,5000
2023-05-29T09:43:26.111Z,4900
2023-05-29T09:44:25.614Z,4800
2023-05-29T09:45:25.549Z,4900
2023-05-29T09:46:26.212Z,5100
2023-05-29T09:47:26.723Z,5190
2023-05-29T09:48:26.066Z,5170
2023-05-29T09:49:25.930Z,5100
2023-05-29T09:50:26.256Z,5000
2023-05-29T09:51:27.357Z,5300
2023-05-29T09:52:26.591Z,5430
2023-05-29T09:53:26.788Z,5300
2023-05-29T09:54:25.474Z,5500
2023-05-29T09:55:26.642Z,5510
2023-05-29T09:56:26.157Z,5494
2023-05-29T09:57:25.805Z,5520
2023-05-29T09:58:25.542Z,5610
2023-05-29T09:59:25.778Z,5600
2023-05-29T10:00:26.294Z,5592
2023-05-29T10:01:26.358Z,5610
2023-05-29T10:02:25.397Z,5616
2023-05-29T10:03:26.130Z,5610
2023-05-29T10:04:25.783Z,5600
2023-05-29T10:05:25.627Z,5790
2023-05-29T10:06:25.444Z,5840
2023-05-29T10:07:26.046Z,5880
2023-05-29T10:08:25.520Z,0
2023-05-29T10:09:26.012Z,5900
2023-05-29T10:10:26.094Z,6090
2023-05-29T10:11:26.224Z,6080
2023-05-29T10:12:26.173Z,6000
2023-05-29T10:13:25.913Z,6470
2023-05-29T10:14:25.988Z,6000
2023-05-29T10:15:26.291Z,7000
2023-05-29T10:16:26.633Z,7500
2023-05-29T10:17:25.731Z,7000
2023-05-29T10:18:25.950Z,8000
2023-05-29T10:19:26.325Z,8000
2023-05-29T10:20:26.693Z,8000
2023-05-29T10:21:25.618Z,7800
2023-05-29T10:22:25.923Z,7800
2023-05-29T10:23:25.722Z,7400
2023-05-29T10:24:25.338Z,7400
2023-05-29T10:25:26.094Z,7100
2023-05-29T10:26:25.847Z,7300
2023-05-29T10:27:25.679Z,7000
2023-05-29T10:28:25.449Z,8200
2023-05-29T10:29:26.178Z,7000
2023-05-29T10:30:26.109Z,7500
2023-05-29T10:31:25.633Z,7000
2023-05-29T10:32:25.412Z,7000
2023-05-29T10:33:25.938Z,8000
2023-05-29T10:34:25.170Z,9200
2023-05-29T10:35:25.937Z,0
2023-05-29T10:36:25.688Z,7900
2023-05-29T10:37:25.928Z,8000
2023-05-29T10:38:25.987Z,7000
2023-05-29T10:39:25.542Z,7300
2023-05-29T10:40:25.430Z,7000
2023-05-29T10:41:25.922Z,0
2023-05-29T10:42:25.662Z,9000
2023-05-29T10:43:25.626Z,8000
2023-05-29T10:44:25.380Z,8000
2023-05-29T10:45:26.032Z,9100
2023-05-29T10:46:25.358Z,9320
2023-05-29T10:47:25.971Z,9200
2023-05-29T10:48:25.506Z,8900
2023-05-29T10:49:25.420Z,9000
2023-05-29T10:50:25.829Z,9300
2023-05-29T10:51:25.156Z,9300
2023-05-29T10:52:25.771Z,0
2023-05-29T10:53:25.862Z,0
2023-05-29T10:54:25.528Z,10000
2023-05-29T10:55:26.221Z,10000
2023-05-29T10:56:25.533Z,10300
2023-05-29T10:57:25.327Z,10000
2023-05-29T10:58:25.697Z,11000
2023-05-29T10:59:25.206Z,11400
2023-05-29T11:00:26.643Z,11000
2023-05-29T11:01:25.834Z,10000
2023-05-29T11:02:25.849Z,9000
2023-05-29T11:03:25.546Z,10000
2023-05-29T11:04:25.823Z,10000
2023-05-29T11:05:25.965Z,0
2023-05-29T11:06:25.570Z,10000
2023-05-29T11:07:25.926Z,10500
2023-05-29T11:08:25.671Z,10000
2023-05-29T11:09:26.102Z,10000
2023-05-29T11:10:25.544Z,13000
2023-05-29T11:11:25.310Z,10000
2023-05-29T11:12:25.842Z,10000
2023-05-29T11:13:25.523Z,11300
2023-05-29T11:14:25.968Z,11500
2023-05-29T11:15:25.916Z,12000
2023-05-29T11:16:25.538Z,10000
2023-05-29T11:17:26.125Z,10000
2023-05-29T11:18:25.717Z,10000
2023-05-29T11:19:25.172Z,11000
2023-05-29T11:20:25.397Z,12000
2023-05-29T11:21:25.099Z,12000
2023-05-29T11:22:25.682Z,10000
2023-05-29T11:23:25.892Z,10000
2023-05-29T11:24:25.435Z,10000
2023-05-29T11:25:26.192Z,10000
2023-05-29T11:26:25.481Z,10000
2023-05-29T11:27:25.477Z,10000
2023-05-29T11:28:25.663Z,14000
2023-05-29T11:29:25.994Z,10000
2023-05-29T11:30:25.499Z,16000
2023-05-29T11:31:26.110Z,10000
2023-05-29T11:32:25.729Z,10000
2023-05-29T11:33:25.190Z,12000
2023-05-29T11:34:25.987Z,12000
2023-05-29T11:35:25.800Z,10000
2023-05-29T11:36:25.536Z,0
2023-05-29T11:37:25.235Z,16000
2023-05-29T11:38:25.111Z,10000
2023-05-29T11:39:25.319Z,15000
2023-05-29T11:40:25.683Z,15000
2023-05-29T11:41:25.431Z,10000
2023-05-29T11:42:26.009Z,0
2023-05-29T11:43:25.355Z,10000
2023-05-29T11:44:25.579Z,10000
2023-05-29T11:45:25.283Z,10000
2023-05-29T11:46:25.705Z,10000
2023-05-29T11:47:25.887Z,10000
2023-05-29T11:48:25.791Z,10000
2023-05-29T11:49:25.424Z,12400
2023-05-29T11:50:25.293Z,10000
2023-05-29T11:51:25.843Z,10000
2023-05-29T11:52:25.316Z,10000
2023-05-29T11:53:26.001Z,20000
2023-05-29T11:54:25.506Z,0
2023-05-29T11:55:25.465Z,0
2023-05-29T11:56:25.943Z,12000
2023-05-29T11:57:25.470Z,10000
2023-05-29T11:58:25.805Z,10000
2023-05-29T11:59:25.304Z,10000
2023-05-29T12:00:26.657Z,10000
2023-05-29T12:01:26.138Z,10000
2023-05-29T12:02:25.530Z,15000
2023-05-29T12:03:25.564Z,15000
2023-05-29T12:04:26.054Z,15000
2023-05-29T12:05:25.815Z,10000
2023-05-29T12:06:25.481Z,0
2023-05-29T12:07:25.911Z,20000
2023-05-29T12:08:25.655Z,0
2023-05-29T12:09:25.426Z,10000
2023-05-29T12:10:26.236Z,10000
2023-05-29T12:11:25.813Z,10000
2023-05-29T12:12:25.467Z,0
2023-05-29T12:13:26.034Z,0
2023-05-29T12:14:25.403Z,0
2023-05-29T12:15:26.099Z,15000
2023-05-29T12:16:25.515Z,10000
2023-05-29T12:17:25.574Z,10000
2023-05-29T12:18:25.407Z,0
2023-05-29T12:19:25.710Z,0
2023-05-29T12:20:25.477Z,0
2023-05-29T12:21:25.405Z,10000
2023-05-29T12:22:25.805Z,0
2023-05-29T12:23:25.307Z,10000
2023-05-29T12:24:32.180Z,10000
2023-05-29T12:25:26.127Z,0
2023-05-29T12:26:25.624Z,20000
2023-05-29T12:27:25.403Z,20000
2023-05-29T12:28:25.954Z,10000
2023-05-29T12:29:25.751Z,0
2023-05-29T12:30:33.248Z,20000
2023-05-29T12:31:25.358Z,0
2023-05-29T12:32:25.785Z,0
2023-05-29T12:33:25.235Z,0
2023-05-29T12:34:25.615Z,20000
2023-05-29T12:35:26.152Z,20000
2023-05-29T12:36:25.952Z,20000
2023-05-29T12:37:25.517Z,20000
2023-05-29T12:38:25.279Z,20000
2023-05-29T12:39:25.762Z,10000
2023-05-29T12:40:25.224Z,10000
2023-05-29T12:41:25.808Z,10000
2023-05-29T12:42:26.135Z,10000
2023-05-29T12:43:25.585Z,10000
2023-05-29T12:44:25.022Z,20000
2023-05-29T12:45:25.829Z,20000
2023-05-29T12:46:25.273Z,20000
2023-05-29T12:47:26.129Z,0
2023-05-29T12:48:25.504Z,10000
2023-05-29T12:49:25.804Z,0
2023-05-29T12:50:25.397Z,0
2023-05-29T12:51:26.015Z,20000
2023-05-29T12:52:25.653Z,0
2023-05-29T12:53:25.138Z,20000
2023-05-29T12:54:25.802Z,20000
2023-05-29T12:55:25.892Z,20000
2023-05-29T12:56:25.391Z,20000
2023-05-29T12:57:25.618Z,20000
2023-05-29T12:58:25.319Z,20000
2023-05-29T12:59:25.797Z,0
2023-05-29T13:00:26.535Z,10000
2023-05-29T13:01:25.857Z,10000
2023-05-29T13:02:25.520Z,17000
2023-05-29T13:03:25.269Z,10000
2023-05-29T13:04:25.867Z,0
2023-05-29T13:05:25.654Z,20000
2023-05-29T13:06:25.455Z,20000
2023-05-29T13:07:25.795Z,20000
2023-05-29T13:08:25.384Z,20000
2023-05-29T13:09:25.551Z,0
2023-05-29T13:10:25.857Z,19000
2023-05-29T13:11:25.711Z,20000
2023-05-29T13:12:26.084Z,0
2023-05-29T13:13:25.457Z,0
2023-05-29T13:14:25.839Z,20000
2023-05-29T13:15:25.474Z,0
2023-05-29T13:16:25.061Z,20000
2023-05-29T13:17:25.564Z,20000
2023-05-29T13:18:25.946Z,20000
2023-05-29T13:19:25.222Z,0
2023-05-29T13:20:25.981Z,20000
2023-05-29T13:21:25.445Z,20000
2023-05-29T13:22:25.797Z,27000
2023-05-29T13:23:27.072Z,0
2023-05-29T13:24:25.663Z,30000
2023-05-29T13:25:25.465Z,20000
2023-05-29T13:26:25.037Z,0
2023-05-29T13:27:25.540Z,0
2023-05-29T13:28:26.135Z,20000